Nearby METAR Reports

 

EDNY - Friedrichshafen, Germany
Distance from station: ONO 32km
aktuell: 12.05.2021 21:20
Few Clouds
Few Clouds
 Wind von calm
Wind: Windstill
Temperatur: 10°C
Taupunkt: 9°C
Luftfeuchte: 94%
Luftdruck: 1011 hPa
Clouds: Few Clouds
Visibility: 10 km
Cloud details: Few Clouds 1372 m
2021/05/12 19:20 EDNY 121920Z 00000KT 9999 FEW045 10/09 Q1011
LSZR - Rheineck/Altenrh, Switzerland
Distance from station: OSO 37km
aktuell: 12.05.2021 21:20
stark bewölkt
stark bewölkt
 Wind von varies
Wind: varies 2 km/h
Temperatur: 10°C
Taupunkt: 10°C
Luftfeuchte: 100%
Luftdruck: 1012 hPa
Clouds: stark bewölkt
Visibility: 10 km
Cloud details: stark bewölkt 2591 m
2021/05/12 19:20 LSZR 121920Z VRB01KT 9999 BKN085 10/10 Q1012 NOSIG RMK P
LSMD - Dubendorf, Switzerland
Distance from station: SW 40km
aktuell: 12.05.2021 21:20
Few Clouds
Few Clouds
 Wind von varies
Wind: varies 4 km/h
Temperatur: 11°C
Taupunkt: 7°C
Luftfeuchte: 77%
Luftdruck: 1011 hPa
Clouds: Few Clouds
Visibility: 10 km
Cloud details: Few Clouds 4572 m
2021/05/12 19:20 LSMD 121920Z AUTO VRB02KT 9999NDV FEW150 11/07 Q1011 RMK
 
LSZH - Zurich-Kloten (a, Switzerland
Distance from station: WSW 44km
aktuell: 12.05.2021 21:20
teilweise bewölkt
teilweise bewölkt
 Wind von NNO
Wind: NNO 6 km/h
Temperatur: 10°C
Taupunkt: 7°C
Luftfeuchte: 82%
Luftdruck: 1011 hPa
Clouds: teilweise bewölkt
Visibility: 10 km
Cloud details: Few Clouds 1981 m
teilweise bewölkt 2286 m
2021/05/12 19:20 LSZH 121920Z 02003KT 350V050 9999 FEW065 SCT075 10/07 Q1011 NOSIG
LOIH - Hohenems-Dornbir, Austria
Distance from station: OSO 51km
aktuell: 31.10.2016 17:00
NOT Current
geschlossene Wolkendecke
geschlossene Wolkendecke
 Wind von calm
Wind: Windstill
Temperatur: 10°C
Taupunkt: 9°C
Luftfeuchte: 94%
Luftdruck: 1026 hPa
Clouds: geschlossene Wolkendecke
Cloud details: geschlossene Wolkendecke 305 m
2016/10/31 16:00 LOIH 311600Z 00000KT 10KM OVC010ST 10/09 Q1026 RMK OVC
LSME - Emmen, Switzerland
Distance from station: SW 82km
aktuell: 12.05.2021 21:20
Few Clouds
Few Clouds
 Wind von calm
Wind: Windstill
Temperatur: 10°C
Taupunkt: 7°C
Luftfeuchte: 82%
Luftdruck: 1011 hPa
Clouds: Few Clouds
Visibility: 10 km
Cloud details: Few Clouds 6706 m
2021/05/12 19:20 LSME 121920Z AUTO 00000KT 9999NDV FEW220 10/07 Q1011 RMK
 
LSZC - Buochs, Switzerland
Distance from station: SW 89km
aktuell: 12.05.2021 21:20
klar
klar
 Wind von SW
Wind: SW 6 km/h
Temperatur: 10°C
Taupunkt: 6°C
Luftfeuchte: 76%
Luftdruck: 1011 hPa
Zusammenfassung: klar
Visibility: greater than 10 km
2021/05/12 19:20 LSZC 121920Z AUTO 22003KT CAVOK 10/06 Q1011
ETHL - Laupheim (ger-Ar, Germany
Distance from station: NO 92km
aktuell: 12.05.2021 21:20
stark bewölkt
stark bewölkt
 Wind von SSW
Wind: SSW 4 km/h
Temperatur: 10°C
Taupunkt: 9°C
Luftfeuchte: 94%
Luftdruck: 1011 hPa
Clouds: stark bewölkt
Visibility: 10 km
Cloud details: teilweise bewölkt 2438 m
stark bewölkt 5182 m
2021/05/12 19:20 ETHL 121920Z 20002KT 9999 SCT080 BKN170 10/09 Q1011 BLU
EDJA - Memmingen Allgau, Germany
Distance from station: ONO 95km
aktuell: 12.05.2021 21:20
klar
klar
 Wind von S
Wind: S 6 km/h
Temperatur: 8°C
Taupunkt: 8°C
Luftfeuchte: 100%
Luftdruck: 1011 hPa
Zusammenfassung: klar
Visibility: greater than 10 km
2021/05/12 19:20 EDJA 121920Z 19003KT CAVOK 08/08 Q1011
 
LSMA - Alpnach, Switzerland
Distance from station: SW 95km
aktuell: 12.05.2021 21:20
Few Clouds
Few Clouds
 Wind von varies
Wind: varies 4 km/h
Temperatur: 10°C
Taupunkt: 6°C
Luftfeuchte: 76%
Luftdruck: 1011 hPa
Clouds: Few Clouds
Visibility: 10 km
Cloud details: Few Clouds 1524 m
2021/05/12 19:20 LSMA 121920Z AUTO VRB02KT 9999NDV FEW050 10/06 Q1011 RMK